ADDS METAR Data INFO
IDs: Format: Raw Decoded Include TAF

Data at: 0937 UTC 25 Jun 2018

KGEU 250148Z 18010KT 10SM SKC 39/03 A2976 RMK LAST
KGEU 250055Z 21011G16KT 10SM SKC 40/06 A2976
KGEU 242354Z 21011KT 10SM SKC 39/07 A2978
KGEU 242255Z 23011KT 10SM SKC 38/08 A2979
KGEU 242151Z 20005KT 10SM SKC 39/06 A2983
KGEU 242055Z 29005KT 10SM SKC 38/06 A2984
KGEU 241949Z 24004KT 10SM SKC 37/07 A2987
KGEU 241852Z 00000KT 10SM SKC 36/07 A2989
KGEU 241751Z 00000KT 10SM SKC 35/08 A2990
KGEU 241647Z 00000KT 10SM SKC 33/09 A2990
KGEU 241559Z 20003KT 10SM SKC 32/09 A2990
KGEU 241451Z 00000KT 10SM SKC 31/10 A2989
KGEU 241349Z 00000KT 10SM SKC 28/11 A2986 RMK FIRST
KGEU 240047Z 1801217KT 10SM SKC 42/07 A2968 RMK LAST
KGEU 232355Z 21011G16KT 10SM SKC 42/06 A2968
KGEU 232255Z 22008G18KT 10SM SKC 42/07 A2971
KGEU 232147Z 22013G17KT 10SM SKC 42/06 A2973